<?xml version="1.0" encoding="utf-8"?>
<gpx xmlns:xsi="http://www.w3.org/2001/XMLSchema-instance" xmlns:xsd="http://www.w3.org/2001/XMLSchema" version="1.1" creator="Shapelink.com" xmlns="http://www.topografix.com/GPX/1/1" xmlns:gpxtpx="http://www.garmin.com/xmlschemas/TrackPointExtension/v1">
  <metadata>
    <name>Övrigt 1.80 km, 2020-08-17</name>
    <desc></desc>
    <author><name>Marian Moron</name></author> 
    <time>2020-08-17T20:29:49Z</time>
  </metadata>
  <trk>
    <name>Övrigt 1.80 km, 2020-08-17</name>
    <trkseg>
      <trkpt lat="51.229947829804" lon="4.458451884437">
        <ele>0</ele>
        <time>2020-08-17T20:29:49Z</time>
      </trkpt>
      <trkpt lat="51.230082443118" lon="4.458952535324">
        <ele>0</ele>
        <time>2020-08-17T20:30:15Z</time>
      </trkpt>
      <trkpt lat="51.230256786638" lon="4.458956390998">
        <ele>0</ele>
        <time>2020-08-17T20:30:37Z</time>
      </trkpt>
      <trkpt lat="51.230373881781" lon="4.459035516134">
        <ele>0</ele>
        <time>2020-08-17T20:31:04Z</time>
      </trkpt>
      <trkpt lat="51.23037564198" lon="4.459096955461">
        <ele>0</ele>
        <time>2020-08-17T20:31:08Z</time>
      </trkpt>
      <trkpt lat="51.23043096252" lon="4.459436087135">
        <ele>0</ele>
        <time>2020-08-17T20:31:41Z</time>
      </trkpt>
      <trkpt lat="51.230442361904" lon="4.45964102459">
        <ele>0</ele>
        <time>2020-08-17T20:32:06Z</time>
      </trkpt>
      <trkpt lat="51.230524253067" lon="4.459827018951">
        <ele>0</ele>
        <time>2020-08-17T20:32:50Z</time>
      </trkpt>
      <trkpt lat="51.230621902202" lon="4.460029190379">
        <ele>0</ele>
        <time>2020-08-17T20:33:10Z</time>
      </trkpt>
      <trkpt lat="51.230671103955" lon="4.460559513192">
        <ele>0.4</ele>
        <time>2020-08-17T20:33:39Z</time>
      </trkpt>
      <trkpt lat="51.230588458421" lon="4.460724888079">
        <ele>1.6</ele>
        <time>2020-08-17T20:34:10Z</time>
      </trkpt>
      <trkpt lat="51.230199957356" lon="4.460801750102">
        <ele>7.6</ele>
        <time>2020-08-17T20:35:03Z</time>
      </trkpt>
      <trkpt lat="51.229763092728" lon="4.460957401985">
        <ele>10.8</ele>
        <time>2020-08-17T20:35:48Z</time>
      </trkpt>
      <trkpt lat="51.229792764654" lon="4.461134176256">
        <ele>7.8</ele>
        <time>2020-08-17T20:36:06Z</time>
      </trkpt>
      <trkpt lat="51.229801984744" lon="4.461166027476">
        <ele>7.4</ele>
        <time>2020-08-17T20:36:08Z</time>
      </trkpt>
      <trkpt lat="51.229881361337" lon="4.461456125035">
        <ele>2.6</ele>
        <time>2020-08-17T20:36:29Z</time>
      </trkpt>
      <trkpt lat="51.230070876096" lon="4.462106728113">
        <ele>0</ele>
        <time>2020-08-17T20:37:07Z</time>
      </trkpt>
      <trkpt lat="51.230113037053" lon="4.46228299947">
        <ele>0.2</ele>
        <time>2020-08-17T20:37:17Z</time>
      </trkpt>
      <trkpt lat="51.230201549917" lon="4.462566223871">
        <ele>4.6</ele>
        <time>2020-08-17T20:37:54Z</time>
      </trkpt>
      <trkpt lat="51.230150085051" lon="4.462676864951">
        <ele>5</ele>
        <time>2020-08-17T20:38:02Z</time>
      </trkpt>
      <trkpt lat="51.230143630988" lon="4.462827068599">
        <ele>4.8</ele>
        <time>2020-08-17T20:38:14Z</time>
      </trkpt>
      <trkpt lat="51.230191994551" lon="4.462874845429">
        <ele>6</ele>
        <time>2020-08-17T20:38:21Z</time>
      </trkpt>
      <trkpt lat="51.230302384174" lon="4.463213138913">
        <ele>2.2</ele>
        <time>2020-08-17T20:38:53Z</time>
      </trkpt>
      <trkpt lat="51.230262989244" lon="4.463886037845">
        <ele>3.8</ele>
        <time>2020-08-17T20:39:26Z</time>
      </trkpt>
      <trkpt lat="51.230075318503" lon="4.46415132498">
        <ele>6.2</ele>
        <time>2020-08-17T20:39:47Z</time>
      </trkpt>
      <trkpt lat="51.229934502583" lon="4.464249141753">
        <ele>9.6</ele>
        <time>2020-08-17T20:40:04Z</time>
      </trkpt>
      <trkpt lat="51.229492273539" lon="4.464305132845">
        <ele>51.2</ele>
        <time>2020-08-17T20:41:14Z</time>
      </trkpt>
      <trkpt lat="51.229440305759" lon="4.46432818307">
        <ele>51.8</ele>
        <time>2020-08-17T20:41:18Z</time>
      </trkpt>
      <trkpt lat="51.22929772964" lon="4.464254757626">
        <ele>52.6</ele>
        <time>2020-08-17T20:41:36Z</time>
      </trkpt>
      <trkpt lat="51.228853405121" lon="4.46437679809">
        <ele>25.4</ele>
        <time>2020-08-17T20:42:41Z</time>
      </trkpt>
      <trkpt lat="51.228845274678" lon="4.464379061203">
        <ele>24.4</ele>
        <time>2020-08-17T20:42:42Z</time>
      </trkpt>
      <trkpt lat="51.228747122629" lon="4.464466819696">
        <ele>15</ele>
        <time>2020-08-17T20:42:56Z</time>
      </trkpt>
      <trkpt lat="51.228715522866" lon="4.464611826566">
        <ele>7.2</ele>
        <time>2020-08-17T20:43:11Z</time>
      </trkpt>
      <trkpt lat="51.228732705761" lon="4.465328395197">
        <ele>2.6</ele>
        <time>2020-08-17T20:43:58Z</time>
      </trkpt>
      <trkpt lat="51.228477057811" lon="4.465892748524">
        <ele>13.4</ele>
        <time>2020-08-17T20:44:49Z</time>
      </trkpt>
      <trkpt lat="51.228153265014" lon="4.466242441392">
        <ele>18.6</ele>
        <time>2020-08-17T20:45:35Z</time>
      </trkpt>
      <trkpt lat="51.227972215974" lon="4.466251745301">
        <ele>20.2</ele>
        <time>2020-08-17T20:46:01Z</time>
      </trkpt>
      <trkpt lat="51.227876410857" lon="4.465625365914">
        <ele>12.8</ele>
        <time>2020-08-17T20:46:43Z</time>
      </trkpt>
      <trkpt lat="51.22789040863" lon="4.465411543645">
        <ele>13.2</ele>
        <time>2020-08-17T20:46:58Z</time>
      </trkpt>
      <trkpt lat="51.227804242698" lon="4.464696316118">
        <ele>5.8</ele>
        <time>2020-08-17T20:47:34Z</time>
      </trkpt>
      <trkpt lat="51.22783089714" lon="4.464651221496">
        <ele>4.8</ele>
        <time>2020-08-17T20:47:44Z</time>
      </trkpt>
      <trkpt lat="51.227919326185" lon="4.46396608499">
        <ele>3.2</ele>
        <time>2020-08-17T20:48:32Z</time>
      </trkpt>
      <trkpt lat="51.227920667289" lon="4.463908417518">
        <ele>3.4</ele>
        <time>2020-08-17T20:48:36Z</time>
      </trkpt>
      <trkpt lat="51.227832741158" lon="4.463227304324">
        <ele>6.6</ele>
        <time>2020-08-17T20:49:21Z</time>
      </trkpt>
      <trkpt lat="51.227825700362" lon="4.463198638226">
        <ele>6</ele>
        <time>2020-08-17T20:49:23Z</time>
      </trkpt>
      <trkpt lat="51.227694188351" lon="4.462954808755">
        <ele>0.6</ele>
        <time>2020-08-17T20:49:45Z</time>
      </trkpt>
      <trkpt lat="51.227596287759" lon="4.462416187861">
        <ele>2</ele>
        <time>2020-08-17T20:50:16Z</time>
      </trkpt>
      <trkpt lat="51.227623277477" lon="4.46216732925">
        <ele>2.4</ele>
        <time>2020-08-17T20:50:37Z</time>
      </trkpt>
      <trkpt lat="51.227556725191" lon="4.462096586014">
        <ele>3</ele>
        <time>2020-08-17T20:50:48Z</time>
      </trkpt>
      <trkpt lat="51.22739922929" lon="4.461593420557">
        <ele>1</ele>
        <time>2020-08-17T20:51:31Z</time>
      </trkpt>
      <trkpt lat="51.227332006452" lon="4.461361074289">
        <ele>7.8</ele>
        <time>2020-08-17T20:51:55Z</time>
      </trkpt>
      <trkpt lat="51.22739252377" lon="4.46114976659">
        <ele>9.8</ele>
        <time>2020-08-17T20:52:21Z</time>
      </trkpt>
      <trkpt lat="51.227396127987" lon="4.460752045435">
        <ele>8.8</ele>
        <time>2020-08-17T20:52:47Z</time>
      </trkpt>
      <trkpt lat="51.227237039525" lon="4.460144609142">
        <ele>2.8</ele>
        <time>2020-08-17T20:53:41Z</time>
      </trkpt>
      <trkpt lat="51.227049284965" lon="4.459483025775">
        <ele>0</ele>
        <time>2020-08-17T20:54:22Z</time>
      </trkpt>
      <trkpt lat="51.227311554616" lon="4.459024619664">
        <ele>9</ele>
        <time>2020-08-17T20:55:11Z</time>
      </trkpt>
      <trkpt lat="51.227447257577" lon="4.458950942763">
        <ele>20.8</ele>
        <time>2020-08-17T20:55:28Z</time>
      </trkpt>
      <trkpt lat="51.227717322395" lon="4.458741730539">
        <ele>29</ele>
        <time>2020-08-17T20:56:13Z</time>
      </trkpt>
      <trkpt lat="51.228134238101" lon="4.458492369014">
        <ele>23</ele>
        <time>2020-08-17T20:57:06Z</time>
      </trkpt>
      <trkpt lat="51.228176650515" lon="4.458463200002">
        <ele>23.8</ele>
        <time>2020-08-17T20:57:11Z</time>
      </trkpt>
      <trkpt lat="51.228544867382" lon="4.45812557707">
        <ele>2.2</ele>
        <time>2020-08-17T20:58:14Z</time>
      </trkpt>
      <trkpt lat="51.22880487392" lon="4.458157260652">
        <ele>5.2</ele>
        <time>2020-08-17T20:58:49Z</time>
      </trkpt>
      <trkpt lat="51.229255065769" lon="4.458085511588">
        <ele>15.8</ele>
        <time>2020-08-17T20:59:48Z</time>
      </trkpt>
      <trkpt lat="51.229650942906" lon="4.457928099506">
        <ele>6.8</ele>
        <time>2020-08-17T21:01:03Z</time>
      </trkpt>
      <trkpt lat="51.229718752477" lon="4.457875042079">
        <ele>7.6</ele>
        <time>2020-08-17T21:01:36Z</time>
      </trkpt>
    </trkseg>
  </trk>
</gpx>